sensor_id;sensor_type;location;lat;lon;timestamp;temperature;humidity
33095;DHT22;19459;53.044;8.910;2023-03-01T00:01:08;-1.40;99.90
33095;DHT22;19459;53.044;8.910;2023-03-01T00:03:40;-1.40;99.90
33095;DHT22;19459;53.044;8.910;2023-03-01T00:06:06;-1.50;99.90
33095;DHT22;19459;53.044;8.910;2023-03-01T00:08:32;-1.50;99.90
33095;DHT22;19459;53.044;8.910;2023-03-01T00:11:06;-1.50;99.90
33095;DHT22;19459;53.044;8.910;2023-03-01T00:13:35;-1.60;99.90
33095;DHT22;19459;53.044;8.910;2023-03-01T00:16:07;-1.60;99.90
33095;DHT22;19459;53.044;8.910;2023-03-01T00:18:34;-1.60;99.90
33095;DHT22;19459;53.044;8.910;2023-03-01T00:21:00;-1.60;99.90
33095;DHT22;19459;53.044;8.910;2023-03-01T00:23:26;-1.60;99.90
33095;DHT22;19459;53.044;8.910;2023-03-01T00:25:53;-1.60;99.90
33095;DHT22;19459;53.044;8.910;2023-03-01T00:28:19;-1.70;99.90
33095;DHT22;19459;53.044;8.910;2023-03-01T00:30:46;-1.70;99.90
33095;DHT22;19459;53.044;8.910;2023-03-01T00:33:12;-1.80;99.90
33095;DHT22;19459;53.044;8.910;2023-03-01T00:35:38;-1.80;99.90
33095;DHT22;19459;53.044;8.910;2023-03-01T00:38:05;-1.80;99.90
33095;DHT22;19459;53.044;8.910;2023-03-01T00:40:32;-1.80;99.90
33095;DHT22;19459;53.044;8.910;2023-03-01T00:42:59;-1.80;99.90
33095;DHT22;19459;53.044;8.910;2023-03-01T00:45:25;-1.80;99.90
33095;DHT22;19459;53.044;8.910;2023-03-01T00:47:53;-1.80;99.90
33095;DHT22;19459;53.044;8.910;2023-03-01T00:50:19;-1.90;99.90
33095;DHT22;19459;53.044;8.910;2023-03-01T00:52:46;-1.90;99.90
33095;DHT22;19459;53.044;8.910;2023-03-01T00:55:12;-1.90;99.90
33095;DHT22;19459;53.044;8.910;2023-03-01T00:57:38;-1.90;99.90
33095;DHT22;19459;53.044;8.910;2023-03-01T01:00:05;-1.90;99.90
33095;DHT22;19459;53.044;8.910;2023-03-01T01:02:35;-1.90;99.90
33095;DHT22;19459;53.044;8.910;2023-03-01T01:05:01;-2.00;99.90
33095;DHT22;19459;53.044;8.910;2023-03-01T01:07:27;-2.00;99.90
33095;DHT22;19459;53.044;8.910;2023-03-01T01:09:53;-2.00;99.90
33095;DHT22;19459;53.044;8.910;2023-03-01T01:12:19;-2.00;99.90
33095;DHT22;19459;53.044;8.910;2023-03-01T01:14:45;-2.00;99.90
33095;DHT22;19459;53.044;8.910;2023-03-01T01:17:20;-2.10;99.90
33095;DHT22;19459;53.044;8.910;2023-03-01T01:19:46;-2.00;99.90
33095;DHT22;19459;53.044;8.910;2023-03-01T01:22:12;-2.00;99.90
33095;DHT22;19459;53.044;8.910;2023-03-01T01:24:37;-2.10;99.90
33095;DHT22;19459;53.044;8.910;2023-03-01T01:27:03;-2.10;99.90
33095;DHT22;19459;53.044;8.910;2023-03-01T01:29:29;-2.10;99.90
33095;DHT22;19459;53.044;8.910;2023-03-01T01:31:55;-2.10;99.90
33095;DHT22;19459;53.044;8.910;2023-03-01T01:34:22;-2.10;99.90
33095;DHT22;19459;53.044;8.910;2023-03-01T01:36:49;-2.20;99.90
33095;DHT22;19459;53.044;8.910;2023-03-01T01:39:16;-2.20;99.90
33095;DHT22;19459;53.044;8.910;2023-03-01T01:41:42;-2.20;99.90
33095;DHT22;19459;53.044;8.910;2023-03-01T01:44:21;-2.20;99.90
33095;DHT22;19459;53.044;8.910;2023-03-01T01:47:00;-2.30;99.90
33095;DHT22;19459;53.044;8.910;2023-03-01T01:52:27;-2.30;99.90
33095;DHT22;19459;53.044;8.910;2023-03-01T01:54:57;-2.30;99.90
33095;DHT22;19459;53.044;8.910;2023-03-01T01:57:51;-2.30;99.90
33095;DHT22;19459;53.044;8.910;2023-03-01T02:00:20;-2.30;99.90
33095;DHT22;19459;53.044;8.910;2023-03-01T02:03:00;-2.30;99.90
33095;DHT22;19459;53.044;8.910;2023-03-01T02:05:42;-2.30;99.90
33095;DHT22;19459;53.044;8.910;2023-03-01T02:08:12;-2.40;99.90
33095;DHT22;19459;53.044;8.910;2023-03-01T02:10:40;-2.40;99.90
33095;DHT22;19459;53.044;8.910;2023-03-01T02:13:06;-2.40;99.90
33095;DHT22;19459;53.044;8.910;2023-03-01T02:15:37;-2.40;99.90
33095;DHT22;19459;53.044;8.910;2023-03-01T02:18:05;-2.40;99.90
33095;DHT22;19459;53.044;8.910;2023-03-01T02:23:16;-2.40;99.90
33095;DHT22;19459;53.044;8.910;2023-03-01T02:25:57;-2.40;99.90
33095;DHT22;19459;53.044;8.910;2023-03-01T02:28:31;-2.50;99.90
33095;DHT22;19459;53.044;8.910;2023-03-01T02:30:58;-2.40;99.90
33095;DHT22;19459;53.044;8.910;2023-03-01T02:33:43;-2.50;99.90
33095;DHT22;19459;53.044;8.910;2023-03-01T02:36:14;-2.50;99.90
33095;DHT22;19459;53.044;8.910;2023-03-01T02:38:44;-2.50;99.90
33095;DHT22;19459;53.044;8.910;2023-03-01T02:41:16;-2.50;99.90
33095;DHT22;19459;53.044;8.910;2023-03-01T02:43:43;-2.50;99.90
33095;DHT22;19459;53.044;8.910;2023-03-01T02:46:21;-2.60;99.90
33095;DHT22;19459;53.044;8.910;2023-03-01T02:48:54;-2.50;99.90
33095;DHT22;19459;53.044;8.910;2023-03-01T02:51:24;-2.60;99.90
33095;DHT22;19459;53.044;8.910;2023-03-01T02:54:24;-2.60;99.90
33095;DHT22;19459;53.044;8.910;2023-03-01T02:56:58;-2.60;99.90
33095;DHT22;19459;53.044;8.910;2023-03-01T02:59:30;-2.60;99.90
33095;DHT22;19459;53.044;8.910;2023-03-01T03:01:57;-2.60;99.90
33095;DHT22;19459;53.044;8.910;2023-03-01T03:04:23;-2.60;99.90
33095;DHT22;19459;53.044;8.910;2023-03-01T03:06:50;-2.60;99.90
33095;DHT22;19459;53.044;8.910;2023-03-01T03:09:17;-2.60;99.90
33095;DHT22;19459;53.044;8.910;2023-03-01T03:11:43;-2.60;99.90
33095;DHT22;19459;53.044;8.910;2023-03-01T03:14:11;-2.50;99.90
33095;DHT22;19459;53.044;8.910;2023-03-01T03:16:44;-2.50;99.90
33095;DHT22;19459;53.044;8.910;2023-03-01T03:19:13;-2.50;99.90
33095;DHT22;19459;53.044;8.910;2023-03-01T03:21:39;-2.50;99.90
33095;DHT22;19459;53.044;8.910;2023-03-01T03:24:05;-2.50;99.90
33095;DHT22;19459;53.044;8.910;2023-03-01T03:26:31;-2.50;99.90
33095;DHT22;19459;53.044;8.910;2023-03-01T03:28:57;-2.50;99.90
33095;DHT22;19459;53.044;8.910;2023-03-01T03:31:23;-2.50;99.90
33095;DHT22;19459;53.044;8.910;2023-03-01T03:33:49;-2.60;99.90
33095;DHT22;19459;53.044;8.910;2023-03-01T03:36:16;-2.60;99.90
33095;DHT22;19459;53.044;8.910;2023-03-01T03:38:44;-2.60;99.90
33095;DHT22;19459;53.044;8.910;2023-03-01T03:41:15;-2.60;99.90
33095;DHT22;19459;53.044;8.910;2023-03-01T03:43:42;-2.60;99.90
33095;DHT22;19459;53.044;8.910;2023-03-01T03:46:10;-2.60;99.90
33095;DHT22;19459;53.044;8.910;2023-03-01T03:48:41;-2.70;99.90
33095;DHT22;19459;53.044;8.910;2023-03-01T03:51:13;-2.70;99.90
33095;DHT22;19459;53.044;8.910;2023-03-01T03:53:41;-2.70;99.90
33095;DHT22;19459;53.044;8.910;2023-03-01T03:56:07;-2.70;99.90
33095;DHT22;19459;53.044;8.910;2023-03-01T03:58:34;-2.70;99.90
33095;DHT22;19459;53.044;8.910;2023-03-01T04:01:00;-2.80;99.90
33095;DHT22;19459;53.044;8.910;2023-03-01T04:03:27;-2.80;99.90
33095;DHT22;19459;53.044;8.910;2023-03-01T04:05:53;-2.80;99.90
33095;DHT22;19459;53.044;8.910;2023-03-01T04:08:20;-2.80;99.90
33095;DHT22;19459;53.044;8.910;2023-03-01T04:10:52;-2.80;99.90
33095;DHT22;19459;53.044;8.910;2023-03-01T04:13:21;-2.80;99.90
33095;DHT22;19459;53.044;8.910;2023-03-01T04:15:52;-2.80;99.90
33095;DHT22;19459;53.044;8.910;2023-03-01T04:18:20;-2.90;99.90
33095;DHT22;19459;53.044;8.910;2023-03-01T04:20:48;-2.90;99.90
33095;DHT22;19459;53.044;8.910;2023-03-01T04:23:16;-2.90;99.90
33095;DHT22;19459;53.044;8.910;2023-03-01T04:25:56;-2.90;99.90
33095;DHT22;19459;53.044;8.910;2023-03-01T04:28:27;-2.90;99.90
33095;DHT22;19459;53.044;8.910;2023-03-01T04:30:56;-2.90;99.90
33095;DHT22;19459;53.044;8.910;2023-03-01T04:33:24;-2.90;99.90
33095;DHT22;19459;53.044;8.910;2023-03-01T04:35:51;-2.90;99.90
33095;DHT22;19459;53.044;8.910;2023-03-01T04:38:18;-2.90;99.90
33095;DHT22;19459;53.044;8.910;2023-03-01T04:40:44;-3.00;99.90
33095;DHT22;19459;53.044;8.910;2023-03-01T04:43:11;-3.00;99.90
33095;DHT22;19459;53.044;8.910;2023-03-01T04:45:39;-3.00;99.90
33095;DHT22;19459;53.044;8.910;2023-03-01T04:48:05;-3.00;99.90
33095;DHT22;19459;53.044;8.910;2023-03-01T04:50:31;-3.00;99.90
33095;DHT22;19459;53.044;8.910;2023-03-01T04:52:57;-3.00;99.90
33095;DHT22;19459;53.044;8.910;2023-03-01T04:55:25;-3.00;99.90
33095;DHT22;19459;53.044;8.910;2023-03-01T04:57:51;-3.00;99.90
33095;DHT22;19459;53.044;8.910;2023-03-01T05:00:18;-3.10;99.90
33095;DHT22;19459;53.044;8.910;2023-03-01T05:02:54;-3.10;99.90
33095;DHT22;19459;53.044;8.910;2023-03-01T05:05:26;-3.10;99.90
33095;DHT22;19459;53.044;8.910;2023-03-01T05:08:05;-3.10;99.90
33095;DHT22;19459;53.044;8.910;2023-03-01T05:10:33;-3.10;99.90
33095;DHT22;19459;53.044;8.910;2023-03-01T05:13:01;-3.10;99.90
33095;DHT22;19459;53.044;8.910;2023-03-01T05:15:29;-3.10;99.90
33095;DHT22;19459;53.044;8.910;2023-03-01T05:17:58;-3.20;99.90
33095;DHT22;19459;53.044;8.910;2023-03-01T05:20:29;-3.10;99.90
33095;DHT22;19459;53.044;8.910;2023-03-01T05:22:57;-3.10;99.90
33095;DHT22;19459;53.044;8.910;2023-03-01T05:25:24;-3.10;99.90
33095;DHT22;19459;53.044;8.910;2023-03-01T05:27:50;-3.20;99.90
33095;DHT22;19459;53.044;8.910;2023-03-01T05:30:16;-3.20;99.90
33095;DHT22;19459;53.044;8.910;2023-03-01T05:32:45;-3.20;99.90
33095;DHT22;19459;53.044;8.910;2023-03-01T05:35:14;-3.20;99.90
33095;DHT22;19459;53.044;8.910;2023-03-01T05:37:46;-3.20;99.90
33095;DHT22;19459;53.044;8.910;2023-03-01T05:40:18;-3.20;99.90
33095;DHT22;19459;53.044;8.910;2023-03-01T05:42:48;-3.20;99.90
33095;DHT22;19459;53.044;8.910;2023-03-01T05:45:15;-3.20;99.90
33095;DHT22;19459;53.044;8.910;2023-03-01T05:47:44;-3.20;99.90
33095;DHT22;19459;53.044;8.910;2023-03-01T05:50:21;-3.20;99.90
33095;DHT22;19459;53.044;8.910;2023-03-01T05:53:23;-3.20;99.90
33095;DHT22;19459;53.044;8.910;2023-03-01T05:55:43;-3.10;99.90
33095;DHT22;19459;53.044;8.910;2023-03-01T05:58:14;-3.20;99.90
33095;DHT22;19459;53.044;8.910;2023-03-01T06:00:43;-3.20;99.90
33095;DHT22;19459;53.044;8.910;2023-03-01T06:03:11;-3.20;99.90
33095;DHT22;19459;53.044;8.910;2023-03-01T06:05:38;-3.20;99.90
33095;DHT22;19459;53.044;8.910;2023-03-01T06:08:05;-3.20;99.90
33095;DHT22;19459;53.044;8.910;2023-03-01T06:10:31;-3.20;99.90
33095;DHT22;19459;53.044;8.910;2023-03-01T06:12:57;-3.20;99.90
33095;DHT22;19459;53.044;8.910;2023-03-01T06:15:24;-3.20;99.90
33095;DHT22;19459;53.044;8.910;2023-03-01T06:17:50;-3.30;99.90
33095;DHT22;19459;53.044;8.910;2023-03-01T06:20:22;-3.30;99.90
33095;DHT22;19459;53.044;8.910;2023-03-01T06:22:49;-3.20;99.90
33095;DHT22;19459;53.044;8.910;2023-03-01T06:25:18;-3.20;99.90
33095;DHT22;19459;53.044;8.910;2023-03-01T06:27:46;-3.30;99.90
33095;DHT22;19459;53.044;8.910;2023-03-01T06:30:15;-3.20;99.90
33095;DHT22;19459;53.044;8.910;2023-03-01T06:32:42;-3.20;99.90
33095;DHT22;19459;53.044;8.910;2023-03-01T06:35:09;-3.20;99.90
33095;DHT22;19459;53.044;8.910;2023-03-01T06:37:36;-3.10;99.90
33095;DHT22;19459;53.044;8.910;2023-03-01T06:40:06;-3.10;99.90
33095;DHT22;19459;53.044;8.910;2023-03-01T06:42:40;-3.10;99.90
33095;DHT22;19459;53.044;8.910;2023-03-01T06:45:08;-3.10;99.90
33095;DHT22;19459;53.044;8.910;2023-03-01T06:47:34;-3.10;99.90
33095;DHT22;19459;53.044;8.910;2023-03-01T06:50:01;-3.00;99.90
33095;DHT22;19459;53.044;8.910;2023-03-01T06:52:27;-2.90;99.90
33095;DHT22;19459;53.044;8.910;2023-03-01T06:54:53;-2.90;99.90
33095;DHT22;19459;53.044;8.910;2023-03-01T06:57:19;-2.70;99.90
33095;DHT22;19459;53.044;8.910;2023-03-01T06:59:45;-2.60;99.90
33095;DHT22;19459;53.044;8.910;2023-03-01T07:02:13;-2.50;99.90
33095;DHT22;19459;53.044;8.910;2023-03-01T07:04:40;-2.40;99.90
33095;DHT22;19459;53.044;8.910;2023-03-01T07:07:06;-2.30;99.90
33095;DHT22;19459;53.044;8.910;2023-03-01T07:09:32;-2.20;99.90
33095;DHT22;19459;53.044;8.910;2023-03-01T07:11:58;-2.10;99.90
33095;DHT22;19459;53.044;8.910;2023-03-01T07:14:24;-2.00;99.90
33095;DHT22;19459;53.044;8.910;2023-03-01T07:16:51;-1.90;99.90
33095;DHT22;19459;53.044;8.910;2023-03-01T07:19:18;-1.80;99.90
33095;DHT22;19459;53.044;8.910;2023-03-01T07:21:43;-1.70;99.90
33095;DHT22;19459;53.044;8.910;2023-03-01T07:24:10;-1.60;99.90
33095;DHT22;19459;53.044;8.910;2023-03-01T07:26:36;-1.40;99.90
33095;DHT22;19459;53.044;8.910;2023-03-01T07:29:05;-1.40;99.90
33095;DHT22;19459;53.044;8.910;2023-03-01T07:31:31;-1.30;99.90
33095;DHT22;19459;53.044;8.910;2023-03-01T07:33:58;-1.20;99.90
33095;DHT22;19459;53.044;8.910;2023-03-01T07:36:24;-1.10;99.90
33095;DHT22;19459;53.044;8.910;2023-03-01T07:38:50;-1.00;99.90
33095;DHT22;19459;53.044;8.910;2023-03-01T07:41:16;-0.90;99.90
33095;DHT22;19459;53.044;8.910;2023-03-01T07:43:42;-0.70;99.90
33095;DHT22;19459;53.044;8.910;2023-03-01T07:46:08;-0.50;99.90
33095;DHT22;19459;53.044;8.910;2023-03-01T07:48:34;-0.40;99.90
33095;DHT22;19459;53.044;8.910;2023-03-01T07:51:01;-0.30;99.90
33095;DHT22;19459;53.044;8.910;2023-03-01T07:53:28;-0.20;99.90
33095;DHT22;19459;53.044;8.910;2023-03-01T07:56:13;-0.20;99.90
33095;DHT22;19459;53.044;8.910;2023-03-01T07:58:43;-0.10;99.90
33095;DHT22;19459;53.044;8.910;2023-03-01T08:01:12;0.00;99.90
33095;DHT22;19459;53.044;8.910;2023-03-01T08:03:40;0.10;99.90
33095;DHT22;19459;53.044;8.910;2023-03-01T08:06:08;0.20;99.90
33095;DHT22;19459;53.044;8.910;2023-03-01T08:08:34;0.30;99.90
33095;DHT22;19459;53.044;8.910;2023-03-01T08:11:02;0.40;99.90
33095;DHT22;19459;53.044;8.910;2023-03-01T08:13:30;0.60;99.90
33095;DHT22;19459;53.044;8.910;2023-03-01T08:16:04;0.60;99.90
33095;DHT22;19459;53.044;8.910;2023-03-01T08:18:31;0.70;99.90
33095;DHT22;19459;53.044;8.910;2023-03-01T08:21:05;0.70;99.90
33095;DHT22;19459;53.044;8.910;2023-03-01T08:23:33;0.80;99.90
33095;DHT22;19459;53.044;8.910;2023-03-01T08:26:12;0.80;99.90
33095;DHT22;19459;53.044;8.910;2023-03-01T08:28:43;0.90;99.90
33095;DHT22;19459;53.044;8.910;2023-03-01T08:33:49;1.10;99.90
33095;DHT22;19459;53.044;8.910;2023-03-01T08:36:21;1.10;99.90
33095;DHT22;19459;53.044;8.910;2023-03-01T08:38:48;1.10;99.90
33095;DHT22;19459;53.044;8.910;2023-03-01T08:41:14;1.10;99.90
33095;DHT22;19459;53.044;8.910;2023-03-01T08:43:40;1.10;99.90
33095;DHT22;19459;53.044;8.910;2023-03-01T08:46:06;1.30;99.90
33095;DHT22;19459;53.044;8.910;2023-03-01T08:48:32;1.30;99.90
33095;DHT22;19459;53.044;8.910;2023-03-01T08:51:13;1.40;99.90
33095;DHT22;19459;53.044;8.910;2023-03-01T08:53:41;1.40;99.90
33095;DHT22;19459;53.044;8.910;2023-03-01T08:56:08;1.50;99.90
33095;DHT22;19459;53.044;8.910;2023-03-01T08:58:34;1.70;99.90
33095;DHT22;19459;53.044;8.910;2023-03-01T09:01:00;1.80;99.90
33095;DHT22;19459;53.044;8.910;2023-03-01T09:03:26;2.00;99.90
33095;DHT22;19459;53.044;8.910;2023-03-01T09:05:53;2.00;99.90
33095;DHT22;19459;53.044;8.910;2023-03-01T09:08:19;2.20;99.90
33095;DHT22;19459;53.044;8.910;2023-03-01T09:10:45;2.50;99.90
33095;DHT22;19459;53.044;8.910;2023-03-01T09:13:11;2.80;99.90
33095;DHT22;19459;53.044;8.910;2023-03-01T09:15:38;3.00;99.90
33095;DHT22;19459;53.044;8.910;2023-03-01T09:18:04;3.10;99.90
33095;DHT22;19459;53.044;8.910;2023-03-01T09:20:31;3.40;99.90
33095;DHT22;19459;53.044;8.910;2023-03-01T09:22:57;3.50;99.90
33095;DHT22;19459;53.044;8.910;2023-03-01T09:25:24;3.70;99.90
33095;DHT22;19459;53.044;8.910;2023-03-01T09:27:53;3.90;99.90
33095;DHT22;19459;53.044;8.910;2023-03-01T09:30:20;4.30;99.90
33095;DHT22;19459;53.044;8.910;2023-03-01T09:32:46;4.60;99.90
33095;DHT22;19459;53.044;8.910;2023-03-01T09:35:13;5.00;99.90
33095;DHT22;19459;53.044;8.910;2023-03-01T09:37:39;5.30;99.90
33095;DHT22;19459;53.044;8.910;2023-03-01T09:40:20;5.70;99.90
33095;DHT22;19459;53.044;8.910;2023-03-01T09:43:12;6.00;99.90
33095;DHT22;19459;53.044;8.910;2023-03-01T09:45:44;6.30;99.90
33095;DHT22;19459;53.044;8.910;2023-03-01T09:48:16;6.50;99.90
33095;DHT22;19459;53.044;8.910;2023-03-01T09:50:45;6.80;99.90
33095;DHT22;19459;53.044;8.910;2023-03-01T09:53:17;7.10;99.90
33095;DHT22;19459;53.044;8.910;2023-03-01T09:56:03;7.20;99.90
33095;DHT22;19459;53.044;8.910;2023-03-01T10:04:51;7.80;99.90
33095;DHT22;19459;53.044;8.910;2023-03-01T10:09:51;8.20;99.50
33095;DHT22;19459;53.044;8.910;2023-03-01T10:12:20;8.40;98.10
33095;DHT22;19459;53.044;8.910;2023-03-01T10:15:28;8.50;97.50
33095;DHT22;19459;53.044;8.910;2023-03-01T10:18:26;8.80;98.90
33095;DHT22;19459;53.044;8.910;2023-03-01T10:21:17;9.20;98.50
33095;DHT22;19459;53.044;8.910;2023-03-01T10:23:44;9.30;95.40
33095;DHT22;19459;53.044;8.910;2023-03-01T10:29:54;9.50;96.70
33095;DHT22;19459;53.044;8.910;2023-03-01T10:32:26;9.60;96.70
33095;DHT22;19459;53.044;8.910;2023-03-01T10:34:55;10.00;96.60
33095;DHT22;19459;53.044;8.910;2023-03-01T10:38:18;10.30;95.70
33095;DHT22;19459;53.044;8.910;2023-03-01T10:56:22;11.30;93.40
33095;DHT22;19459;53.044;8.910;2023-03-01T10:59:46;11.40;92.90
33095;DHT22;19459;53.044;8.910;2023-03-01T11:03:03;11.40;92.60
33095;DHT22;19459;53.044;8.910;2023-03-01T11:05:51;11.60;93.80
33095;DHT22;19459;53.044;8.910;2023-03-01T11:08:40;11.70;93.50
33095;DHT22;19459;53.044;8.910;2023-03-01T11:11:30;11.90;93.90
33095;DHT22;19459;53.044;8.910;2023-03-01T11:16:41;12.00;94.60
33095;DHT22;19459;53.044;8.910;2023-03-01T11:21:39;12.10;94.80
33095;DHT22;19459;53.044;8.910;2023-03-01T11:24:13;12.20;94.80
33095;DHT22;19459;53.044;8.910;2023-03-01T11:26:43;12.30;95.30
33095;DHT22;19459;53.044;8.910;2023-03-01T11:29:46;12.30;94.70
33095;DHT22;19459;53.044;8.910;2023-03-01T11:32:16;12.30;94.60
33095;DHT22;19459;53.044;8.910;2023-03-01T11:38:09;12.60;95.40
33095;DHT22;19459;53.044;8.910;2023-03-01T11:40:40;12.70;94.90
33095;DHT22;19459;53.044;8.910;2023-03-01T11:48:40;13.30;94.50
33095;DHT22;19459;53.044;8.910;2023-03-01T11:54:57;12.80;93.20
33095;DHT22;19459;53.044;8.910;2023-03-01T12:24:49;13.00;94.90
33095;DHT22;19459;53.044;8.910;2023-03-01T12:31:14;13.10;94.00
33095;DHT22;19459;53.044;8.910;2023-03-01T12:34:54;12.70;94.50
33095;DHT22;19459;53.044;8.910;2023-03-01T12:38:07;12.90;95.40
33095;DHT22;19459;53.044;8.910;2023-03-01T12:49:28;12.40;96.10
33095;DHT22;19459;53.044;8.910;2023-03-01T12:52:18;12.80;96.40
33095;DHT22;19459;53.044;8.910;2023-03-01T12:55:02;12.60;94.60
33095;DHT22;19459;53.044;8.910;2023-03-01T13:00:45;12.30;95.80
33095;DHT22;19459;53.044;8.910;2023-03-01T13:03:57;12.40;95.40
33095;DHT22;19459;53.044;8.910;2023-03-01T13:20:21;13.20;94.40
33095;DHT22;19459;53.044;8.910;2023-03-01T13:23:01;13.50;95.50
33095;DHT22;19459;53.044;8.910;2023-03-01T13:25:29;13.90;94.40
33095;DHT22;19459;53.044;8.910;2023-03-01T13:30:59;13.90;92.60
33095;DHT22;19459;53.044;8.910;2023-03-01T13:35:56;13.30;93.60
33095;DHT22;19459;53.044;8.910;2023-03-01T13:41:27;13.40;94.10
33095;DHT22;19459;53.044;8.910;2023-03-01T13:44:33;13.80;94.20
33095;DHT22;19459;53.044;8.910;2023-03-01T13:49:57;13.80;92.90
33095;DHT22;19459;53.044;8.910;2023-03-01T13:52:38;13.60;92.70
33095;DHT22;19459;53.044;8.910;2023-03-01T13:57:43;13.60;93.10
33095;DHT22;19459;53.044;8.910;2023-03-01T14:00:32;13.60;94.10
33095;DHT22;19459;53.044;8.910;2023-03-01T14:05:43;13.80;93.80
33095;DHT22;19459;53.044;8.910;2023-03-01T14:08:32;13.70;93.80
33095;DHT22;19459;53.044;8.910;2023-03-01T14:19:45;12.50;94.20
33095;DHT22;19459;53.044;8.910;2023-03-01T14:22:29;12.60;95.10
33095;DHT22;19459;53.044;8.910;2023-03-01T14:25:05;12.50;95.10
33095;DHT22;19459;53.044;8.910;2023-03-01T14:27:42;12.60;95.20
33095;DHT22;19459;53.044;8.910;2023-03-01T14:30:17;12.70;95.60
33095;DHT22;19459;53.044;8.910;2023-03-01T14:33:02;12.70;95.50
33095;DHT22;19459;53.044;8.910;2023-03-01T14:35:34;12.70;94.90
33095;DHT22;19459;53.044;8.910;2023-03-01T14:38:01;12.80;94.70
33095;DHT22;19459;53.044;8.910;2023-03-01T14:40:32;12.80;95.30
33095;DHT22;19459;53.044;8.910;2023-03-01T14:43:01;12.50;94.80
33095;DHT22;19459;53.044;8.910;2023-03-01T14:45:33;12.40;95.60
33095;DHT22;19459;53.044;8.910;2023-03-01T14:48:01;12.50;95.00
33095;DHT22;19459;53.044;8.910;2023-03-01T14:50:36;12.50;95.20
33095;DHT22;19459;53.044;8.910;2023-03-01T14:53:11;12.70;95.60
33095;DHT22;19459;53.044;8.910;2023-03-01T14:55:46;12.80;95.60
33095;DHT22;19459;53.044;8.910;2023-03-01T14:58:18;12.90;95.30
33095;DHT22;19459;53.044;8.910;2023-03-01T15:00:53;12.90;94.80
33095;DHT22;19459;53.044;8.910;2023-03-01T15:03:41;12.80;94.60
33095;DHT22;19459;53.044;8.910;2023-03-01T15:06:10;12.60;94.40
33095;DHT22;19459;53.044;8.910;2023-03-01T15:08:42;12.50;95.10
33095;DHT22;19459;53.044;8.910;2023-03-01T15:13:40;12.40;96.10
33095;DHT22;19459;53.044;8.910;2023-03-01T15:16:11;12.30;95.70
33095;DHT22;19459;53.044;8.910;2023-03-01T15:18:48;12.30;96.00
33095;DHT22;19459;53.044;8.910;2023-03-01T15:21:35;12.10;96.30
33095;DHT22;19459;53.044;8.910;2023-03-01T15:27:12;12.00;96.60
33095;DHT22;19459;53.044;8.910;2023-03-01T15:29:38;12.00;96.60
33095;DHT22;19459;53.044;8.910;2023-03-01T15:32:29;12.00;96.70
33095;DHT22;19459;53.044;8.910;2023-03-01T15:35:01;11.60;96.40
33095;DHT22;19459;53.044;8.910;2023-03-01T15:37:58;11.60;97.00
33095;DHT22;19459;53.044;8.910;2023-03-01T15:40:29;11.60;97.40
33095;DHT22;19459;53.044;8.910;2023-03-01T15:43:03;11.70;97.70
33095;DHT22;19459;53.044;8.910;2023-03-01T15:45:32;11.70;98.30
33095;DHT22;19459;53.044;8.910;2023-03-01T15:48:04;11.60;98.50
33095;DHT22;19459;53.044;8.910;2023-03-01T15:50:39;11.40;98.30
33095;DHT22;19459;53.044;8.910;2023-03-01T15:53:09;11.10;99.10
33095;DHT22;19459;53.044;8.910;2023-03-01T15:55:37;10.90;99.10
33095;DHT22;19459;53.044;8.910;2023-03-01T15:58:14;10.60;99.60
33095;DHT22;19459;53.044;8.910;2023-03-01T16:00:42;10.40;99.90
33095;DHT22;19459;53.044;8.910;2023-03-01T16:03:14;10.20;99.90
33095;DHT22;19459;53.044;8.910;2023-03-01T16:06:08;10.10;99.90
33095;DHT22;19459;53.044;8.910;2023-03-01T16:08:39;10.00;99.90
33095;DHT22;19459;53.044;8.910;2023-03-01T16:11:29;9.80;99.90
33095;DHT22;19459;53.044;8.910;2023-03-01T16:22:11;9.40;99.90
33095;DHT22;19459;53.044;8.910;2023-03-01T16:30:08;9.10;99.90
33095;DHT22;19459;53.044;8.910;2023-03-01T16:50:16;8.60;99.90
33095;DHT22;19459;53.044;8.910;2023-03-01T16:52:42;8.10;99.90
33095;DHT22;19459;53.044;8.910;2023-03-01T16:55:08;8.00;99.90
33095;DHT22;19459;53.044;8.910;2023-03-01T16:57:35;7.90;99.90
33095;DHT22;19459;53.044;8.910;2023-03-01T17:00:04;7.80;99.90
33095;DHT22;19459;53.044;8.910;2023-03-01T17:02:35;7.70;99.90
33095;DHT22;19459;53.044;8.910;2023-03-01T17:05:02;7.60;99.90
33095;DHT22;19459;53.044;8.910;2023-03-01T17:07:29;7.50;99.90
33095;DHT22;19459;53.044;8.910;2023-03-01T17:09:59;7.50;99.90
33095;DHT22;19459;53.044;8.910;2023-03-01T17:12:25;7.40;99.90
33095;DHT22;19459;53.044;8.910;2023-03-01T17:14:51;7.30;99.90
33095;DHT22;19459;53.044;8.910;2023-03-01T17:17:17;7.20;99.90
33095;DHT22;19459;53.044;8.910;2023-03-01T17:19:42;7.20;99.90
33095;DHT22;19459;53.044;8.910;2023-03-01T17:22:09;7.10;99.90
33095;DHT22;19459;53.044;8.910;2023-03-01T17:24:38;7.00;99.90
33095;DHT22;19459;53.044;8.910;2023-03-01T17:27:06;6.90;99.90
33095;DHT22;19459;53.044;8.910;2023-03-01T17:29:32;6.80;99.90
33095;DHT22;19459;53.044;8.910;2023-03-01T17:31:58;6.80;99.90
33095;DHT22;19459;53.044;8.910;2023-03-01T17:34:24;6.70;99.90
33095;DHT22;19459;53.044;8.910;2023-03-01T17:36:50;6.70;99.90
33095;DHT22;19459;53.044;8.910;2023-03-01T17:39:20;6.60;99.90
33095;DHT22;19459;53.044;8.910;2023-03-01T17:41:51;6.50;99.90
33095;DHT22;19459;53.044;8.910;2023-03-01T17:44:17;6.40;99.90
33095;DHT22;19459;53.044;8.910;2023-03-01T17:46:43;6.40;99.90
33095;DHT22;19459;53.044;8.910;2023-03-01T17:49:08;6.30;99.90
33095;DHT22;19459;53.044;8.910;2023-03-01T17:51:34;6.20;99.90
33095;DHT22;19459;53.044;8.910;2023-03-01T17:54:00;6.10;99.90
33095;DHT22;19459;53.044;8.910;2023-03-01T17:56:26;6.10;99.90
33095;DHT22;19459;53.044;8.910;2023-03-01T17:58:52;6.10;99.90
33095;DHT22;19459;53.044;8.910;2023-03-01T18:01:20;6.00;99.90
33095;DHT22;19459;53.044;8.910;2023-03-01T18:03:46;5.90;99.90
33095;DHT22;19459;53.044;8.910;2023-03-01T18:06:17;5.80;99.90
33095;DHT22;19459;53.044;8.910;2023-03-01T18:08:48;5.80;99.90
33095;DHT22;19459;53.044;8.910;2023-03-01T18:11:16;5.70;99.90
33095;DHT22;19459;53.044;8.910;2023-03-01T18:13:43;5.70;99.90
33095;DHT22;19459;53.044;8.910;2023-03-01T18:16:15;5.60;99.90
33095;DHT22;19459;53.044;8.910;2023-03-01T18:18:42;5.60;99.90
33095;DHT22;19459;53.044;8.910;2023-03-01T18:21:09;5.50;99.90
33095;DHT22;19459;53.044;8.910;2023-03-01T18:23:36;5.50;99.90
33095;DHT22;19459;53.044;8.910;2023-03-01T18:26:07;5.40;99.90
33095;DHT22;19459;53.044;8.910;2023-03-01T18:28:35;5.40;99.90
33095;DHT22;19459;53.044;8.910;2023-03-01T18:31:06;5.30;99.90
33095;DHT22;19459;53.044;8.910;2023-03-01T18:33:34;5.30;99.90
33095;DHT22;19459;53.044;8.910;2023-03-01T18:36:00;5.20;99.90
33095;DHT22;19459;53.044;8.910;2023-03-01T18:38:26;5.10;99.90
33095;DHT22;19459;53.044;8.910;2023-03-01T18:40:53;5.00;99.90
33095;DHT22;19459;53.044;8.910;2023-03-01T18:43:20;5.00;99.90
33095;DHT22;19459;53.044;8.910;2023-03-01T18:45:46;4.90;99.90
33095;DHT22;19459;53.044;8.910;2023-03-01T18:48:13;4.90;99.90
33095;DHT22;19459;53.044;8.910;2023-03-01T18:50:40;4.90;99.90
33095;DHT22;19459;53.044;8.910;2023-03-01T18:53:07;4.80;99.90